sensor_id;sensor_type;location;lat;lon;timestamp;P1;durP1;ratioP1;P2;durP2;ratioP2
49942;SDS011;36011;53.362;58.948;2023-04-25T00:02:24;2.03;;;1.60;;
49942;SDS011;36011;53.362;58.948;2023-04-25T00:08:34;2.30;;;1.85;;
49942;SDS011;36011;53.362;58.948;2023-04-25T00:11:40;4.05;;;1.75;;
49942;SDS011;36011;53.362;58.948;2023-04-25T00:14:47;5.72;;;1.73;;
49942;SDS011;36011;53.362;58.948;2023-04-25T00:17:53;2.45;;;1.42;;
49942;SDS011;36011;53.362;58.948;2023-04-25T00:20:57;3.75;;;1.88;;
49942;SDS011;36011;53.362;58.948;2023-04-25T00:24:04;2.25;;;1.67;;
49942;SDS011;36011;53.362;58.948;2023-04-25T00:27:11;2.33;;;1.42;;
49942;SDS011;36011;53.362;58.948;2023-04-25T00:30:15;2.53;;;1.50;;
49942;SDS011;36011;53.362;58.948;2023-04-25T00:33:16;6.00;;;1.88;;
49942;SDS011;36011;53.362;58.948;2023-04-25T00:36:18;1.83;;;1.58;;
49942;SDS011;36011;53.362;58.948;2023-04-25T00:39:25;1.60;;;1.50;;
49942;SDS011;36011;53.362;58.948;2023-04-25T00:42:27;3.65;;;1.75;;
49942;SDS011;36011;53.362;58.948;2023-04-25T00:45:32;4.80;;;2.10;;
49942;SDS011;36011;53.362;58.948;2023-04-25T00:48:43;2.50;;;1.80;;
49942;SDS011;36011;53.362;58.948;2023-04-25T00:51:49;5.05;;;2.10;;
49942;SDS011;36011;53.362;58.948;2023-04-25T00:54:51;3.97;;;2.00;;
49942;SDS011;36011;53.362;58.948;2023-04-25T00:57:58;5.65;;;2.20;;
49942;SDS011;36011;53.362;58.948;2023-04-25T01:01:00;4.07;;;2.17;;
49942;SDS011;36011;53.362;58.948;2023-04-25T01:04:02;2.80;;;1.98;;
49942;SDS011;36011;53.362;58.948;2023-04-25T01:07:05;10.98;;;2.53;;
49942;SDS011;36011;53.362;58.948;2023-04-25T01:10:09;3.85;;;1.92;;
49942;SDS011;36011;53.362;58.948;2023-04-25T01:13:13;5.28;;;2.63;;
49942;SDS011;36011;53.362;58.948;2023-04-25T01:16:16;3.22;;;1.90;;
49942;SDS011;36011;53.362;58.948;2023-04-25T01:19:20;5.28;;;2.40;;
49942;SDS011;36011;53.362;58.948;2023-04-25T01:22:22;6.88;;;3.25;;
49942;SDS011;36011;53.362;58.948;2023-04-25T01:25:28;4.57;;;2.28;;
49942;SDS011;36011;53.362;58.948;2023-04-25T01:28:35;2.65;;;1.63;;
49942;SDS011;36011;53.362;58.948;2023-04-25T01:31:42;2.10;;;1.70;;
49942;SDS011;36011;53.362;58.948;2023-04-25T01:34:46;3.22;;;1.92;;
49942;SDS011;36011;53.362;58.948;2023-04-25T01:37:50;2.00;;;1.73;;
49942;SDS011;36011;53.362;58.948;2023-04-25T01:40:52;3.20;;;1.73;;
49942;SDS011;36011;53.362;58.948;2023-04-25T01:43:56;1.85;;;1.67;;
49942;SDS011;36011;53.362;58.948;2023-04-25T01:46:58;5.13;;;1.70;;
49942;SDS011;36011;53.362;58.948;2023-04-25T01:50:05;2.08;;;1.70;;
49942;SDS011;36011;53.362;58.948;2023-04-25T01:53:10;4.50;;;1.90;;
49942;SDS011;36011;53.362;58.948;2023-04-25T01:56:19;5.13;;;1.98;;
49942;SDS011;36011;53.362;58.948;2023-04-25T01:59:22;2.42;;;1.95;;
49942;SDS011;36011;53.362;58.948;2023-04-25T02:02:30;5.53;;;2.10;;
49942;SDS011;36011;53.362;58.948;2023-04-25T02:05:40;2.13;;;1.77;;
49942;SDS011;36011;53.362;58.948;2023-04-25T02:08:44;2.58;;;1.77;;
49942;SDS011;36011;53.362;58.948;2023-04-25T02:11:47;3.53;;;2.05;;
49942;SDS011;36011;53.362;58.948;2023-04-25T02:14:49;3.03;;;1.75;;
49942;SDS011;36011;53.362;58.948;2023-04-25T02:17:53;3.78;;;2.08;;
49942;SDS011;36011;53.362;58.948;2023-04-25T02:20:55;4.63;;;2.80;;
49942;SDS011;36011;53.362;58.948;2023-04-25T02:23:56;5.53;;;2.80;;
49942;SDS011;36011;53.362;58.948;2023-04-25T02:27:06;4.40;;;2.83;;
49942;SDS011;36011;53.362;58.948;2023-04-25T02:30:12;5.45;;;2.40;;
49942;SDS011;36011;53.362;58.948;2023-04-25T02:33:16;6.72;;;2.25;;
49942;SDS011;36011;53.362;58.948;2023-04-25T02:36:25;5.60;;;2.00;;
49942;SDS011;36011;53.362;58.948;2023-04-25T02:39:29;7.88;;;3.05;;
49942;SDS011;36011;53.362;58.948;2023-04-25T02:42:33;3.60;;;2.05;;
49942;SDS011;36011;53.362;58.948;2023-04-25T02:45:40;6.03;;;2.30;;
49942;SDS011;36011;53.362;58.948;2023-04-25T02:48:45;4.05;;;2.38;;
49942;SDS011;36011;53.362;58.948;2023-04-25T02:51:57;3.55;;;2.45;;
49942;SDS011;36011;53.362;58.948;2023-04-25T02:55:01;7.85;;;3.17;;
49942;SDS011;36011;53.362;58.948;2023-04-25T02:58:09;4.68;;;2.25;;
49942;SDS011;36011;53.362;58.948;2023-04-25T03:01:11;4.93;;;2.65;;
49942;SDS011;36011;53.362;58.948;2023-04-25T03:04:16;8.00;;;4.10;;
49942;SDS011;36011;53.362;58.948;2023-04-25T03:07:22;9.60;;;3.47;;
49942;SDS011;36011;53.362;58.948;2023-04-25T03:10:26;6.20;;;3.10;;
49942;SDS011;36011;53.362;58.948;2023-04-25T03:13:33;4.97;;;2.80;;
49942;SDS011;36011;53.362;58.948;2023-04-25T03:16:44;5.05;;;2.58;;
49942;SDS011;36011;53.362;58.948;2023-04-25T03:22:51;4.63;;;2.25;;
49942;SDS011;36011;53.362;58.948;2023-04-25T03:25:58;2.20;;;1.25;;
49942;SDS011;36011;53.362;58.948;2023-04-25T03:29:08;4.57;;;2.17;;
49942;SDS011;36011;53.362;58.948;2023-04-25T03:32:12;6.35;;;2.30;;
49942;SDS011;36011;53.362;58.948;2023-04-25T03:35:18;5.57;;;2.35;;
49942;SDS011;36011;53.362;58.948;2023-04-25T03:38:22;4.80;;;2.05;;
49942;SDS011;36011;53.362;58.948;2023-04-25T03:41:29;7.45;;;2.60;;
49942;SDS011;36011;53.362;58.948;2023-04-25T03:44:32;4.50;;;2.63;;
49942;SDS011;36011;53.362;58.948;2023-04-25T03:47:36;7.03;;;3.33;;
49942;SDS011;36011;53.362;58.948;2023-04-25T03:50:43;5.70;;;2.22;;
49942;SDS011;36011;53.362;58.948;2023-04-25T03:53:51;4.95;;;1.60;;
49942;SDS011;36011;53.362;58.948;2023-04-25T03:56:58;3.67;;;2.00;;
49942;SDS011;36011;53.362;58.948;2023-04-25T04:00:06;3.83;;;1.98;;
49942;SDS011;36011;53.362;58.948;2023-04-25T04:03:13;4.18;;;2.20;;
49942;SDS011;36011;53.362;58.948;2023-04-25T04:06:20;6.40;;;2.40;;
49942;SDS011;36011;53.362;58.948;2023-04-25T04:09:22;5.97;;;2.35;;
49942;SDS011;36011;53.362;58.948;2023-04-25T04:12:32;6.72;;;2.90;;
49942;SDS011;36011;53.362;58.948;2023-04-25T04:15:33;8.50;;;2.80;;
49942;SDS011;36011;53.362;58.948;2023-04-25T04:18:44;5.82;;;1.98;;
49942;SDS011;36011;53.362;58.948;2023-04-25T04:21:57;8.45;;;2.35;;
49942;SDS011;36011;53.362;58.948;2023-04-25T04:25:01;4.35;;;1.95;;
49942;SDS011;36011;53.362;58.948;2023-04-25T04:28:07;3.03;;;2.33;;
49942;SDS011;36011;53.362;58.948;2023-04-25T04:31:14;9.23;;;2.50;;
49942;SDS011;36011;53.362;58.948;2023-04-25T04:34:22;2.28;;;1.75;;
49942;SDS011;36011;53.362;58.948;2023-04-25T04:37:25;2.72;;;1.55;;
49942;SDS011;36011;53.362;58.948;2023-04-25T04:40:29;2.60;;;1.33;;
49942;SDS011;36011;53.362;58.948;2023-04-25T04:43:32;1.35;;;1.25;;
49942;SDS011;36011;53.362;58.948;2023-04-25T04:46:36;1.90;;;1.55;;
49942;SDS011;36011;53.362;58.948;2023-04-25T04:49:45;4.10;;;1.75;;
49942;SDS011;36011;53.362;58.948;2023-04-25T04:52:50;3.08;;;1.50;;
49942;SDS011;36011;53.362;58.948;2023-04-25T04:55:55;2.45;;;1.55;;
49942;SDS011;36011;53.362;58.948;2023-04-25T04:59:00;2.35;;;1.42;;
49942;SDS011;36011;53.362;58.948;2023-04-25T05:02:07;4.70;;;1.63;;
49942;SDS011;36011;53.362;58.948;2023-04-25T05:05:10;3.28;;;1.50;;
49942;SDS011;36011;53.362;58.948;2023-04-25T05:08:16;1.27;;;1.17;;
49942;SDS011;36011;53.362;58.948;2023-04-25T05:11:22;2.90;;;1.55;;
49942;SDS011;36011;53.362;58.948;2023-04-25T05:14:31;2.15;;;0.90;;
49942;SDS011;36011;53.362;58.948;2023-04-25T05:17:33;1.70;;;0.90;;
49942;SDS011;36011;53.362;58.948;2023-04-25T05:20:39;2.70;;;0.82;;
49942;SDS011;36011;53.362;58.948;2023-04-25T05:23:45;2.65;;;0.95;;
49942;SDS011;36011;53.362;58.948;2023-04-25T05:26:52;3.78;;;1.67;;
49942;SDS011;36011;53.362;58.948;2023-04-25T05:33:01;2.00;;;1.23;;
49942;SDS011;36011;53.362;58.948;2023-04-25T05:36:08;1.58;;;1.02;;
49942;SDS011;36011;53.362;58.948;2023-04-25T05:39:12;1.80;;;0.80;;
49942;SDS011;36011;53.362;58.948;2023-04-25T05:42:17;4.00;;;0.70;;
49942;SDS011;36011;53.362;58.948;2023-04-25T05:45:21;2.55;;;0.88;;
49942;SDS011;36011;53.362;58.948;2023-04-25T05:48:30;1.58;;;0.90;;
49942;SDS011;36011;53.362;58.948;2023-04-25T05:51:37;1.40;;;0.70;;
49942;SDS011;36011;53.362;58.948;2023-04-25T05:54:43;1.65;;;0.80;;
49942;SDS011;36011;53.362;58.948;2023-04-25T05:57:47;2.22;;;0.77;;
49942;SDS011;36011;53.362;58.948;2023-04-25T06:00:52;4.15;;;0.88;;
49942;SDS011;36011;53.362;58.948;2023-04-25T06:03:56;2.65;;;0.68;;
49942;SDS011;36011;53.362;58.948;2023-04-25T06:07:00;3.95;;;0.75;;
49942;SDS011;36011;53.362;58.948;2023-04-25T06:10:04;1.85;;;0.73;;
49942;SDS011;36011;53.362;58.948;2023-04-25T06:13:11;0.77;;;0.60;;
49942;SDS011;36011;53.362;58.948;2023-04-25T06:16:12;1.48;;;0.75;;
49942;SDS011;36011;53.362;58.948;2023-04-25T06:19:19;2.28;;;1.00;;
49942;SDS011;36011;53.362;58.948;2023-04-25T06:22:28;2.13;;;1.50;;
49942;SDS011;36011;53.362;58.948;2023-04-25T06:25:32;3.53;;;1.45;;
49942;SDS011;36011;53.362;58.948;2023-04-25T06:28:36;1.83;;;0.80;;
49942;SDS011;36011;53.362;58.948;2023-04-25T06:31:45;1.42;;;0.82;;
49942;SDS011;36011;53.362;58.948;2023-04-25T06:34:52;3.05;;;0.70;;
49942;SDS011;36011;53.362;58.948;2023-04-25T06:37:57;3.00;;;1.40;;
49942;SDS011;36011;53.362;58.948;2023-04-25T06:41:04;1.92;;;0.90;;
49942;SDS011;36011;53.362;58.948;2023-04-25T06:44:09;5.68;;;1.20;;
49942;SDS011;36011;53.362;58.948;2023-04-25T06:47:14;2.03;;;1.05;;
49942;SDS011;36011;53.362;58.948;2023-04-25T06:50:21;1.67;;;0.77;;
49942;SDS011;36011;53.362;58.948;2023-04-25T06:53:27;1.00;;;0.82;;
49942;SDS011;36011;53.362;58.948;2023-04-25T06:56:33;3.28;;;0.75;;
49942;SDS011;36011;53.362;58.948;2023-04-25T06:59:38;1.33;;;0.80;;
49942;SDS011;36011;53.362;58.948;2023-04-25T07:02:46;0.93;;;0.52;;
49942;SDS011;36011;53.362;58.948;2023-04-25T07:05:53;2.35;;;0.77;;
49942;SDS011;36011;53.362;58.948;2023-04-25T07:08:57;1.88;;;0.90;;
49942;SDS011;36011;53.362;58.948;2023-04-25T07:12:11;2.75;;;0.70;;
49942;SDS011;36011;53.362;58.948;2023-04-25T07:15:19;1.05;;;0.70;;
49942;SDS011;36011;53.362;58.948;2023-04-25T07:18:22;1.70;;;0.70;;
49942;SDS011;36011;53.362;58.948;2023-04-25T07:21:29;2.00;;;1.63;;
49942;SDS011;36011;53.362;58.948;2023-04-25T07:24:36;1.75;;;1.40;;
49942;SDS011;36011;53.362;58.948;2023-04-25T07:27:44;1.90;;;0.82;;
49942;SDS011;36011;53.362;58.948;2023-04-25T07:30:51;0.85;;;0.70;;
49942;SDS011;36011;53.362;58.948;2023-04-25T07:33:56;1.63;;;0.80;;
49942;SDS011;36011;53.362;58.948;2023-04-25T07:37:00;0.98;;;0.70;;
49942;SDS011;36011;53.362;58.948;2023-04-25T07:40:05;1.42;;;0.73;;
49942;SDS011;36011;53.362;58.948;2023-04-25T07:43:07;1.75;;;1.00;;
49942;SDS011;36011;53.362;58.948;2023-04-25T07:46:10;1.38;;;0.90;;
49942;SDS011;36011;53.362;58.948;2023-04-25T07:49:18;1.33;;;0.70;;
49942;SDS011;36011;53.362;58.948;2023-04-25T07:52:27;0.65;;;0.65;;
49942;SDS011;36011;53.362;58.948;2023-04-25T07:55:29;0.70;;;0.65;;
49942;SDS011;36011;53.362;58.948;2023-04-25T07:58:33;4.55;;;0.80;;
49942;SDS011;36011;53.362;58.948;2023-04-25T08:01:37;1.48;;;0.93;;
49942;SDS011;36011;53.362;58.948;2023-04-25T08:04:44;1.50;;;0.73;;
49942;SDS011;36011;53.362;58.948;2023-04-25T08:07:53;1.17;;;0.60;;
49942;SDS011;36011;53.362;58.948;2023-04-25T08:10:58;1.35;;;0.70;;
49942;SDS011;36011;53.362;58.948;2023-04-25T08:14:05;0.85;;;0.65;;
49942;SDS011;36011;53.362;58.948;2023-04-25T08:17:12;1.80;;;0.82;;
49942;SDS011;36011;53.362;58.948;2023-04-25T08:20:16;2.13;;;0.90;;
49942;SDS011;36011;53.362;58.948;2023-04-25T08:23:19;1.40;;;0.80;;
49942;SDS011;36011;53.362;58.948;2023-04-25T08:26:27;2.63;;;1.17;;
49942;SDS011;36011;53.362;58.948;2023-04-25T08:29:34;0.75;;;0.50;;
49942;SDS011;36011;53.362;58.948;2023-04-25T08:32:38;2.20;;;0.88;;
49942;SDS011;36011;53.362;58.948;2023-04-25T08:35:47;4.25;;;2.13;;
49942;SDS011;36011;53.362;58.948;2023-04-25T08:38:51;2.92;;;1.08;;
49942;SDS011;36011;53.362;58.948;2023-04-25T08:41:56;2.63;;;0.90;;
49942;SDS011;36011;53.362;58.948;2023-04-25T08:45:05;1.63;;;0.80;;
49942;SDS011;36011;53.362;58.948;2023-04-25T08:48:16;0.98;;;0.77;;
49942;SDS011;36011;53.362;58.948;2023-04-25T08:51:26;1.38;;;0.80;;
49942;SDS011;36011;53.362;58.948;2023-04-25T08:54:35;2.92;;;0.85;;
49942;SDS011;36011;53.362;58.948;2023-04-25T08:57:51;2.80;;;0.70;;
49942;SDS011;36011;53.362;58.948;2023-04-25T09:00:59;1.27;;;0.85;;
49942;SDS011;36011;53.362;58.948;2023-04-25T09:04:00;1.38;;;0.90;;
49942;SDS011;36011;53.362;58.948;2023-04-25T09:07:07;2.13;;;0.70;;
49942;SDS011;36011;53.362;58.948;2023-04-25T09:10:14;2.40;;;0.50;;
49942;SDS011;36011;53.362;58.948;2023-04-25T09:13:20;2.88;;;1.30;;
49942;SDS011;36011;53.362;58.948;2023-04-25T09:16:28;2.47;;;1.10;;
49942;SDS011;36011;53.362;58.948;2023-04-25T09:19:35;3.28;;;1.02;;
49942;SDS011;36011;53.362;58.948;2023-04-25T09:22:43;1.20;;;1.00;;
49942;SDS011;36011;53.362;58.948;2023-04-25T09:25:47;4.20;;;1.77;;
49942;SDS011;36011;53.362;58.948;2023-04-25T09:29:05;9.75;;;1.27;;
49942;SDS011;36011;53.362;58.948;2023-04-25T09:35:24;1.40;;;0.90;;
49942;SDS011;36011;53.362;58.948;2023-04-25T09:38:31;2.75;;;1.05;;
49942;SDS011;36011;53.362;58.948;2023-04-25T09:41:38;2.22;;;1.00;;
49942;SDS011;36011;53.362;58.948;2023-04-25T09:44:46;1.73;;;1.08;;
49942;SDS011;36011;53.362;58.948;2023-04-25T09:47:48;1.55;;;0.93;;
49942;SDS011;36011;53.362;58.948;2023-04-25T09:51:11;2.97;;;1.00;;
49942;SDS011;36011;53.362;58.948;2023-04-25T09:54:16;0.60;;;0.60;;
49942;SDS011;36011;53.362;58.948;2023-04-25T09:57:18;1.25;;;0.90;;
49942;SDS011;36011;53.362;58.948;2023-04-25T10:00:25;10.70;;;7.38;;
49942;SDS011;36011;53.362;58.948;2023-04-25T10:03:31;2.53;;;1.00;;
49942;SDS011;36011;53.362;58.948;2023-04-25T10:06:36;2.05;;;0.90;;
49942;SDS011;36011;53.362;58.948;2023-04-25T10:12:43;4.38;;;1.20;;
49942;SDS011;36011;53.362;58.948;2023-04-25T10:15:51;1.27;;;1.00;;
49942;SDS011;36011;53.362;58.948;2023-04-25T10:18:57;2.45;;;1.20;;
49942;SDS011;36011;53.362;58.948;2023-04-25T10:25:21;1.65;;;1.00;;
49942;SDS011;36011;53.362;58.948;2023-04-25T10:28:26;1.23;;;0.90;;
49942;SDS011;36011;53.362;58.948;2023-04-25T10:31:53;1.63;;;0.95;;
49942;SDS011;36011;53.362;58.948;2023-04-25T10:34:56;1.38;;;0.73;;
49942;SDS011;36011;53.362;58.948;2023-04-25T10:38:05;2.38;;;1.10;;
49942;SDS011;36011;53.362;58.948;2023-04-25T10:41:17;1.85;;;1.02;;
49942;SDS011;36011;53.362;58.948;2023-04-25T10:44:22;1.70;;;1.10;;
49942;SDS011;36011;53.362;58.948;2023-04-25T10:47:36;4.47;;;1.60;;
49942;SDS011;36011;53.362;58.948;2023-04-25T10:50:47;1.55;;;1.30;;
49942;SDS011;36011;53.362;58.948;2023-04-25T10:54:11;1.58;;;1.00;;
49942;SDS011;36011;53.362;58.948;2023-04-25T10:57:37;2.22;;;1.42;;
49942;SDS011;36011;53.362;58.948;2023-04-25T11:00:47;2.63;;;1.10;;
49942;SDS011;36011;53.362;58.948;2023-04-25T11:03:56;1.75;;;0.70;;
49942;SDS011;36011;53.362;58.948;2023-04-25T11:10:21;7.63;;;1.10;;
49942;SDS011;36011;53.362;58.948;2023-04-25T11:13:32;1.00;;;0.88;;
49942;SDS011;36011;53.362;58.948;2023-04-25T11:16:36;3.03;;;1.00;;
49942;SDS011;36011;53.362;58.948;2023-04-25T11:19:42;2.47;;;1.00;;
49942;SDS011;36011;53.362;58.948;2023-04-25T11:22:47;3.75;;;1.10;;
49942;SDS011;36011;53.362;58.948;2023-04-25T11:25:53;1.45;;;0.90;;
49942;SDS011;36011;53.362;58.948;2023-04-25T11:28:59;2.80;;;1.20;;
49942;SDS011;36011;53.362;58.948;2023-04-25T11:32:04;2.90;;;1.50;;
49942;SDS011;36011;53.362;58.948;2023-04-25T11:35:19;1.88;;;1.00;;
49942;SDS011;36011;53.362;58.948;2023-04-25T11:39:06;1.65;;;1.10;;
49942;SDS011;36011;53.362;58.948;2023-04-25T11:42:13;1.40;;;0.98;;
49942;SDS011;36011;53.362;58.948;2023-04-25T11:45:37;2.17;;;0.95;;
49942;SDS011;36011;53.362;58.948;2023-04-25T11:48:46;2.08;;;1.33;;
49942;SDS011;36011;53.362;58.948;2023-04-25T11:51:54;2.28;;;1.20;;
49942;SDS011;36011;53.362;58.948;2023-04-25T11:55:00;4.07;;;1.30;;
49942;SDS011;36011;53.362;58.948;2023-04-25T11:58:07;4.70;;;1.35;;
49942;SDS011;36011;53.362;58.948;2023-04-25T12:01:34;2.92;;;1.10;;
49942;SDS011;36011;53.362;58.948;2023-04-25T12:04:45;1.52;;;1.27;;
49942;SDS011;36011;53.362;58.948;2023-04-25T12:07:52;3.10;;;1.10;;
49942;SDS011;36011;53.362;58.948;2023-04-25T12:10:58;2.58;;;1.27;;
49942;SDS011;36011;53.362;58.948;2023-04-25T12:14:04;4.70;;;1.10;;
49942;SDS011;36011;53.362;58.948;2023-04-25T12:17:06;1.67;;;0.98;;
49942;SDS011;36011;53.362;58.948;2023-04-25T12:20:14;3.50;;;1.35;;
49942;SDS011;36011;53.362;58.948;2023-04-25T12:23:16;4.03;;;2.42;;
49942;SDS011;36011;53.362;58.948;2023-04-25T12:26:45;3.47;;;1.55;;
49942;SDS011;36011;53.362;58.948;2023-04-25T12:29:50;4.15;;;1.60;;
49942;SDS011;36011;53.362;58.948;2023-04-25T12:32:57;2.25;;;1.58;;
49942;SDS011;36011;53.362;58.948;2023-04-25T12:36:04;2.20;;;1.60;;
49942;SDS011;36011;53.362;58.948;2023-04-25T12:39:20;2.47;;;1.30;;
49942;SDS011;36011;53.362;58.948;2023-04-25T12:42:28;4.22;;;2.00;;
49942;SDS011;36011;53.362;58.948;2023-04-25T12:45:35;4.45;;;2.00;;
49942;SDS011;36011;53.362;58.948;2023-04-25T12:48:44;4.25;;;1.63;;
49942;SDS011;36011;53.362;58.948;2023-04-25T12:51:46;2.42;;;1.58;;
49942;SDS011;36011;53.362;58.948;2023-04-25T12:54:52;1.90;;;1.63;;
49942;SDS011;36011;53.362;58.948;2023-04-25T12:57:56;2.53;;;1.63;;
49942;SDS011;36011;53.362;58.948;2023-04-25T13:01:02;3.15;;;1.42;;
49942;SDS011;36011;53.362;58.948;2023-04-25T13:04:05;3.58;;;2.40;;
49942;SDS011;36011;53.362;58.948;2023-04-25T13:07:09;8.15;;;2.08;;
49942;SDS011;36011;53.362;58.948;2023-04-25T13:10:13;3.35;;;1.75;;
49942;SDS011;36011;53.362;58.948;2023-04-25T13:13:18;4.00;;;1.70;;
49942;SDS011;36011;53.362;58.948;2023-04-25T13:16:23;2.38;;;1.58;;
49942;SDS011;36011;53.362;58.948;2023-04-25T13:19:26;3.47;;;1.38;;
49942;SDS011;36011;53.362;58.948;2023-04-25T13:22:33;4.60;;;1.70;;
49942;SDS011;36011;53.362;58.948;2023-04-25T13:25:39;5.18;;;2.20;;
49942;SDS011;36011;53.362;58.948;2023-04-25T13:28:43;4.20;;;2.17;;
49942;SDS011;36011;53.362;58.948;2023-04-25T13:31:50;4.47;;;2.10;;
49942;SDS011;36011;53.362;58.948;2023-04-25T13:34:54;2.80;;;2.03;;
49942;SDS011;36011;53.362;58.948;2023-04-25T13:37:58;2.55;;;1.98;;
49942;SDS011;36011;53.362;58.948;2023-04-25T13:41:06;3.85;;;2.25;;
49942;SDS011;36011;53.362;58.948;2023-04-25T13:44:14;3.13;;;2.17;;
49942;SDS011;36011;53.362;58.948;2023-04-25T13:47:21;5.60;;;2.35;;
49942;SDS011;36011;53.362;58.948;2023-04-25T13:50:26;3.33;;;2.25;;
49942;SDS011;36011;53.362;58.948;2023-04-25T13:53:35;4.45;;;2.65;;
49942;SDS011;36011;53.362;58.948;2023-04-25T13:56:42;4.82;;;2.90;;
49942;SDS011;36011;53.362;58.948;2023-04-25T13:59:43;4.88;;;2.28;;
49942;SDS011;36011;53.362;58.948;2023-04-25T14:02:49;4.57;;;3.05;;
49942;SDS011;36011;53.362;58.948;2023-04-25T14:05:53;7.20;;;2.90;;
49942;SDS011;36011;53.362;58.948;2023-04-25T14:08:55;5.15;;;3.25;;
49942;SDS011;36011;53.362;58.948;2023-04-25T14:12:04;5.47;;;3.00;;
49942;SDS011;36011;53.362;58.948;2023-04-25T14:15:09;6.50;;;3.22;;
49942;SDS011;36011;53.362;58.948;2023-04-25T14:18:14;10.25;;;3.10;;
49942;SDS011;36011;53.362;58.948;2023-04-25T14:21:20;3.85;;;2.60;;
49942;SDS011;36011;53.362;58.948;2023-04-25T14:24:26;4.45;;;3.22;;
49942;SDS011;36011;53.362;58.948;2023-04-25T14:27:32;3.90;;;2.58;;
49942;SDS011;36011;53.362;58.948;2023-04-25T14:30:38;7.80;;;3.00;;
49942;SDS011;36011;53.362;58.948;2023-04-25T14:33:39;3.65;;;2.22;;
49942;SDS011;36011;53.362;58.948;2023-04-25T14:36:49;4.60;;;2.38;;
49942;SDS011;36011;53.362;58.948;2023-04-25T14:39:53;5.32;;;3.22;;
49942;SDS011;36011;53.362;58.948;2023-04-25T14:42:55;6.85;;;2.83;;
49942;SDS011;36011;53.362;58.948;2023-04-25T14:46:01;3.70;;;2.30;;
49942;SDS011;36011;53.362;58.948;2023-04-25T14:49:10;6.93;;;2.75;;
49942;SDS011;36011;53.362;58.948;2023-04-25T14:52:11;4.75;;;2.53;;
49942;SDS011;36011;53.362;58.948;2023-04-25T14:55:13;3.40;;;2.65;;
49942;SDS011;36011;53.362;58.948;2023-04-25T14:58:19;3.40;;;2.10;;
49942;SDS011;36011;53.362;58.948;2023-04-25T15:01:22;6.03;;;2.20;;
49942;SDS011;36011;53.362;58.948;2023-04-25T15:04:29;6.22;;;2.70;;
49942;SDS011;36011;53.362;58.948;2023-04-25T15:07:33;5.63;;;2.50;;
49942;SDS011;36011;53.362;58.948;2023-04-25T15:10:43;3.85;;;2.50;;
49942;SDS011;36011;53.362;58.948;2023-04-25T15:13:45;7.35;;;3.10;;
49942;SDS011;36011;53.362;58.948;2023-04-25T15:16:50;4.20;;;2.20;;
49942;SDS011;36011;53.362;58.948;2023-04-25T15:19:56;7.00;;;2.53;;
49942;SDS011;36011;53.362;58.948;2023-04-25T15:23:02;3.90;;;2.40;;
49942;SDS011;36011;53.362;58.948;2023-04-25T15:26:10;5.25;;;2.50;;
49942;SDS011;36011;53.362;58.948;2023-04-25T15:29:14;4.70;;;2.60;;
49942;SDS011;36011;53.362;58.948;2023-04-25T15:32:16;2.97;;;2.08;;
49942;SDS011;36011;53.362;58.948;2023-04-25T15:35:21;3.75;;;2.65;;
49942;SDS011;36011;53.362;58.948;2023-04-25T15:38:26;6.57;;;2.85;;
49942;SDS011;36011;53.362;58.948;2023-04-25T15:41:28;5.80;;;2.35;;
49942;SDS011;36011;53.362;58.948;2023-04-25T15:44:29;4.32;;;2.25;;
49942;SDS011;36011;53.362;58.948;2023-04-25T15:47:37;3.80;;;2.40;;
49942;SDS011;36011;53.362;58.948;2023-04-25T15:50:41;3.72;;;2.05;;
49942;SDS011;36011;53.362;58.948;2023-04-25T15:53:50;2.25;;;2.03;;
49942;SDS011;36011;53.362;58.948;2023-04-25T15:56:56;3.90;;;2.22;;
49942;SDS011;36011;53.362;58.948;2023-04-25T16:00:04;6.07;;;2.33;;
49942;SDS011;36011;53.362;58.948;2023-04-25T16:03:17;4.15;;;2.17;;
49942;SDS011;36011;53.362;58.948;2023-04-25T16:09:30;4.63;;;2.15;;
49942;SDS011;36011;53.362;58.948;2023-04-25T16:12:41;4.22;;;2.40;;
49942;SDS011;36011;53.362;58.948;2023-04-25T16:15:42;3.97;;;2.53;;
49942;SDS011;36011;53.362;58.948;2023-04-25T16:18:46;3.38;;;2.00;;
49942;SDS011;36011;53.362;58.948;2023-04-25T16:21:50;4.15;;;2.15;;
49942;SDS011;36011;53.362;58.948;2023-04-25T16:24:58;3.22;;;2.22;;
49942;SDS011;36011;53.362;58.948;2023-04-25T16:28:08;4.03;;;2.42;;
49942;SDS011;36011;53.362;58.948;2023-04-25T16:31:12;3.75;;;2.38;;
49942;SDS011;36011;53.362;58.948;2023-04-25T16:34:13;4.57;;;2.30;;
49942;SDS011;36011;53.362;58.948;2023-04-25T16:37:19;4.32;;;2.20;;
49942;SDS011;36011;53.362;58.948;2023-04-25T16:40:27;6.63;;;2.40;;
49942;SDS011;36011;53.362;58.948;2023-04-25T16:43:32;3.92;;;2.95;;
49942;SDS011;36011;53.362;58.948;2023-04-25T16:46:36;4.35;;;2.88;;
49942;SDS011;36011;53.362;58.948;2023-04-25T16:49:41;3.72;;;2.40;;
49942;SDS011;36011;53.362;58.948;2023-04-25T16:55:53;3.80;;;2.20;;
49942;SDS011;36011;53.362;58.948;2023-04-25T16:58:54;4.38;;;2.45;;
49942;SDS011;36011;53.362;58.948;2023-04-25T17:02:01;3.22;;;2.22;;
49942;SDS011;36011;53.362;58.948;2023-04-25T17:05:08;3.88;;;2.25;;
49942;SDS011;36011;53.362;58.948;2023-04-25T17:08:18;4.97;;;2.45;;
49942;SDS011;36011;53.362;58.948;2023-04-25T17:11:26;5.15;;;2.45;;
49942;SDS011;36011;53.362;58.948;2023-04-25T17:14:31;4.72;;;2.47;;
49942;SDS011;36011;53.362;58.948;2023-04-25T17:17:39;4.80;;;2.28;;
49942;SDS011;36011;53.362;58.948;2023-04-25T17:20:43;4.85;;;2.15;;
49942;SDS011;36011;53.362;58.948;2023-04-25T17:23:50;2.90;;;1.98;;
49942;SDS011;36011;53.362;58.948;2023-04-25T17:26:55;5.68;;;1.70;;
49942;SDS011;36011;53.362;58.948;2023-04-25T17:29:59;5.05;;;2.20;;
49942;SDS011;36011;53.362;58.948;2023-04-25T17:33:09;4.22;;;2.40;;
49942;SDS011;36011;53.362;58.948;2023-04-25T17:36:11;5.70;;;2.20;;
49942;SDS011;36011;53.362;58.948;2023-04-25T17:39:15;2.15;;;1.80;;
49942;SDS011;36011;53.362;58.948;2023-04-25T17:42:22;2.72;;;1.98;;
49942;SDS011;36011;53.362;58.948;2023-04-25T17:45:30;4.07;;;1.73;;
49942;SDS011;36011;53.362;58.948;2023-04-25T17:48:38;2.90;;;1.85;;
49942;SDS011;36011;53.362;58.948;2023-04-25T17:51:42;3.28;;;2.05;;
49942;SDS011;36011;53.362;58.948;2023-04-25T17:54:46;3.70;;;1.73;;
49942;SDS011;36011;53.362;58.948;2023-04-25T17:57:49;3.45;;;2.15;;
49942;SDS011;36011;53.362;58.948;2023-04-25T18:00:55;5.25;;;1.70;;
49942;SDS011;36011;53.362;58.948;2023-04-25T18:04:04;4.60;;;2.28;;
49942;SDS011;36011;53.362;58.948;2023-04-25T18:07:11;4.50;;;2.35;;
49942;SDS011;36011;53.362;58.948;2023-04-25T18:10:16;3.65;;;1.92;;
49942;SDS011;36011;53.362;58.948;2023-04-25T18:13:18;2.00;;;1.80;;
49942;SDS011;36011;53.362;58.948;2023-04-25T18:16:23;2.67;;;2.00;;
49942;SDS011;36011;53.362;58.948;2023-04-25T18:19:26;4.13;;;1.80;;
49942;SDS011;36011;53.362;58.948;2023-04-25T18:22:30;2.92;;;2.13;;
49942;SDS011;36011;53.362;58.948;2023-04-25T18:25:35;5.13;;;2.70;;
49942;SDS011;36011;53.362;58.948;2023-04-25T18:28:42;3.47;;;2.20;;
49942;SDS011;36011;53.362;58.948;2023-04-25T18:31:47;5.38;;;2.58;;
49942;SDS011;36011;53.362;58.948;2023-04-25T18:34:55;3.90;;;1.98;;
49942;SDS011;36011;53.362;58.948;2023-04-25T18:38:00;4.93;;;2.33;;
49942;SDS011;36011;53.362;58.948;2023-04-25T18:41:07;4.05;;;2.17;;
49942;SDS011;36011;53.362;58.948;2023-04-25T18:44:08;4.93;;;2.08;;
49942;SDS011;36011;53.362;58.948;2023-04-25T18:47:17;4.43;;;2.10;;
49942;SDS011;36011;53.362;58.948;2023-04-25T18:53:22;2.47;;;1.80;;
49942;SDS011;36011;53.362;58.948;2023-04-25T18:56:29;2.75;;;1.88;;